createdAt,value
2023-04-26T00:01:01.471Z,88.23
2023-04-26T00:03:27.974Z,88.07
2023-04-26T00:05:54.548Z,88.64
2023-04-26T00:08:20.957Z,88.46
2023-04-26T00:10:47.354Z,88.43
2023-04-26T00:13:13.719Z,88.09
2023-04-26T00:15:40.105Z,88.05
2023-04-26T00:18:06.437Z,88.27
2023-04-26T00:20:32.800Z,88.32
2023-04-26T00:22:59.184Z,88.46
2023-04-26T00:25:25.538Z,88.15
2023-04-26T00:27:51.887Z,88.75
2023-04-26T00:30:18.238Z,88.70
2023-04-26T00:32:44.629Z,88.46
2023-04-26T00:35:10.970Z,88.76
2023-04-26T00:37:37.354Z,88.27
2023-04-26T00:40:03.751Z,88.42
2023-04-26T00:42:30.136Z,88.27
2023-04-26T00:44:56.478Z,88.29
2023-04-26T00:47:23.050Z,88.86
2023-04-26T00:49:49.419Z,88.89
2023-04-26T00:52:15.996Z,88.83
2023-04-26T00:54:42.341Z,89.02
2023-04-26T00:57:08.669Z,88.27
2023-04-26T00:59:35.053Z,88.67
2023-04-26T01:02:01.431Z,89.18
2023-04-26T01:04:27.896Z,88.51
2023-04-26T01:06:54.269Z,88.48
2023-04-26T01:09:20.623Z,88.78
2023-04-26T01:11:46.947Z,88.37
2023-04-26T01:14:13.317Z,88.86
2023-04-26T01:16:39.734Z,88.80
2023-04-26T01:19:06.313Z,88.86
2023-04-26T01:21:32.665Z,88.82
2023-04-26T01:23:59.250Z,88.97
2023-04-26T01:26:25.621Z,88.75
2023-04-26T01:28:52.201Z,88.87
2023-04-26T01:31:18.807Z,88.75
2023-04-26T01:33:45.198Z,88.89
2023-04-26T01:36:11.563Z,88.87
2023-04-26T01:38:37.902Z,88.57
2023-04-26T01:41:04.270Z,88.85
2023-04-26T01:43:30.615Z,89.11
2023-04-26T01:45:57.006Z,88.86
2023-04-26T01:48:23.375Z,88.75
2023-04-26T01:50:49.938Z,89.14
2023-04-26T01:53:16.266Z,89.38
2023-04-26T01:55:42.726Z,89.39
2023-04-26T01:58:09.102Z,88.80
2023-04-26T02:00:35.477Z,89.07
2023-04-26T02:03:01.956Z,89.23
2023-04-26T02:05:28.647Z,88.95
2023-04-26T02:07:54.990Z,89.14
2023-04-26T02:10:21.355Z,89.31
2023-04-26T02:12:47.692Z,89.00
2023-04-26T02:15:14.050Z,89.12
2023-04-26T02:17:40.654Z,89.16
2023-04-26T02:20:07.027Z,89.03
2023-04-26T02:22:33.403Z,89.30
2023-04-26T02:24:59.999Z,89.50
2023-04-26T02:27:26.351Z,89.33
2023-04-26T02:29:52.676Z,89.21
2023-04-26T02:32:19.029Z,89.20
2023-04-26T02:34:45.353Z,89.25
2023-04-26T02:37:11.905Z,89.06
2023-04-26T02:39:38.470Z,89.31
2023-04-26T02:42:04.833Z,89.34
2023-04-26T02:44:31.248Z,89.51
2023-04-26T02:46:57.671Z,89.70
2023-04-26T02:49:24.285Z,89.52
2023-04-26T02:51:50.641Z,89.29
2023-04-26T02:54:16.994Z,89.47
2023-04-26T02:56:43.351Z,89.44
2023-04-26T02:59:09.710Z,89.61
2023-04-26T03:01:36.099Z,89.63
2023-04-26T03:04:02.518Z,89.52
2023-04-26T03:06:28.954Z,89.55
2023-04-26T03:08:55.394Z,89.64
2023-04-26T03:11:21.844Z,89.78
2023-04-26T03:13:48.205Z,89.66
2023-04-26T03:16:14.831Z,89.36
2023-04-26T03:18:41.212Z,89.75
2023-04-26T03:21:07.648Z,89.65
2023-04-26T03:23:34.006Z,89.60
2023-04-26T03:26:00.381Z,89.65
2023-04-26T03:28:26.761Z,89.68
2023-04-26T03:30:53.313Z,89.61
2023-04-26T03:33:19.684Z,89.45
2023-04-26T03:35:46.058Z,89.53
2023-04-26T03:38:12.402Z,89.50
2023-04-26T03:40:38.749Z,89.72
2023-04-26T03:43:05.227Z,89.47
2023-04-26T03:45:31.574Z,89.37
2023-04-26T03:47:57.927Z,89.43
2023-04-26T03:50:24.315Z,89.27
2023-04-26T03:52:50.655Z,89.04
2023-04-26T03:55:17.031Z,89.20
2023-04-26T03:57:43.369Z,89.07
2023-04-26T04:00:09.721Z,88.84
2023-04-26T04:02:36.548Z,88.88
2023-04-26T04:05:03.145Z,88.91
2023-04-26T04:07:29.752Z,88.79
2023-04-26T04:09:56.126Z,88.84
2023-04-26T04:12:22.696Z,88.74
2023-04-26T04:14:49.042Z,88.90
2023-04-26T04:17:16.261Z,88.74
2023-04-26T04:19:42.610Z,88.62
2023-04-26T04:22:09.174Z,88.87
2023-04-26T04:24:35.528Z,88.86
2023-04-26T04:27:01.889Z,88.86
2023-04-26T04:29:28.223Z,88.43
2023-04-26T04:31:54.573Z,88.61
2023-04-26T04:34:20.931Z,88.70
2023-04-26T04:36:47.302Z,88.61
2023-04-26T04:39:13.681Z,88.39
2023-04-26T04:41:40.027Z,88.15
2023-04-26T04:44:06.397Z,88.13
2023-04-26T04:46:32.758Z,88.05
2023-04-26T04:48:59.150Z,88.04
2023-04-26T04:51:25.521Z,88.00
2023-04-26T04:53:51.896Z,88.08
2023-04-26T04:56:18.274Z,87.90
2023-04-26T04:58:44.629Z,88.04
2023-04-26T05:01:11.015Z,87.77
2023-04-26T05:03:37.472Z,87.25
2023-04-26T05:06:04.453Z,87.61
2023-04-26T05:08:30.794Z,87.78
2023-04-26T05:10:57.122Z,87.60
2023-04-26T05:13:23.998Z,87.67
2023-04-26T05:15:51.253Z,87.62
2023-04-26T05:18:17.607Z,87.29
2023-04-26T05:20:43.966Z,87.20
2023-04-26T05:23:10.354Z,86.95
2023-04-26T05:25:36.717Z,86.97
2023-04-26T05:28:03.124Z,86.08
2023-04-26T05:30:29.981Z,86.36
2023-04-26T05:32:56.402Z,86.15
2023-04-26T05:35:22.791Z,86.09
2023-04-26T05:37:49.645Z,85.56
2023-04-26T05:40:16.016Z,85.45
2023-04-26T05:42:42.815Z,85.52
2023-04-26T05:45:09.188Z,85.47
2023-04-26T05:47:36.311Z,85.40
2023-04-26T05:50:02.697Z,85.35
2023-04-26T05:52:29.064Z,85.11
2023-04-26T05:54:55.459Z,84.98
2023-04-26T05:57:21.877Z,85.07
2023-04-26T05:59:48.480Z,85.01
2023-04-26T06:02:14.964Z,85.01
2023-04-26T06:04:41.717Z,85.39
2023-04-26T06:07:08.304Z,84.98
2023-04-26T06:09:34.918Z,84.95
2023-04-26T06:12:01.268Z,84.95
2023-04-26T06:14:30.831Z,84.95
2023-04-26T06:16:57.486Z,84.94
2023-04-26T06:19:23.878Z,85.19
2023-04-26T06:21:50.217Z,85.00
2023-04-26T06:24:16.560Z,84.93
2023-04-26T06:26:42.928Z,84.72
2023-04-26T06:29:13.172Z,84.63
2023-04-26T06:31:39.579Z,84.73
2023-04-26T06:34:06.495Z,84.73
2023-04-26T06:36:32.932Z,84.88
2023-04-26T06:38:59.301Z,84.73
2023-04-26T06:41:25.666Z,84.64
2023-04-26T06:43:52.640Z,84.80
2023-04-26T06:46:19.255Z,84.88
2023-04-26T06:48:45.872Z,84.68
2023-04-26T06:51:12.234Z,84.83
2023-04-26T06:53:39.293Z,84.86
2023-04-26T06:56:05.641Z,85.00
2023-04-26T06:58:32.000Z,85.19
2023-04-26T07:00:58.866Z,85.26
2023-04-26T07:03:25.812Z,85.27
2023-04-26T07:05:52.253Z,85.13
2023-04-26T07:08:18.589Z,84.97
2023-04-26T07:10:45.162Z,84.81
2023-04-26T07:13:15.282Z,85.00
2023-04-26T07:15:41.707Z,85.36
2023-04-26T07:18:08.155Z,85.20
2023-04-26T07:20:35.080Z,85.52
2023-04-26T07:23:01.432Z,86.02
2023-04-26T07:25:28.039Z,86.54
2023-04-26T07:27:54.382Z,86.70
2023-04-26T07:30:20.710Z,86.75
2023-04-26T07:32:47.174Z,86.75
2023-04-26T07:35:13.570Z,86.89
2023-04-26T07:37:39.856Z,86.86
2023-04-26T07:40:06.705Z,86.97
2023-04-26T07:42:33.081Z,87.21
2023-04-26T07:44:59.953Z,87.44
2023-04-26T07:47:26.350Z,87.59
2023-04-26T07:49:52.705Z,87.53
2023-04-26T07:52:19.040Z,87.40
2023-04-26T07:54:46.432Z,87.62
2023-04-26T07:57:12.826Z,87.54
2023-04-26T07:59:39.218Z,87.61
2023-04-26T08:02:05.601Z,87.61
2023-04-26T08:04:32.083Z,87.83
2023-04-26T08:06:58.561Z,87.67
2023-04-26T08:09:24.931Z,87.76
2023-04-26T08:11:51.357Z,87.89
2023-04-26T08:14:17.829Z,88.01
2023-04-26T08:19:31.989Z,88.04
2023-04-26T08:21:58.542Z,88.20
2023-04-26T08:24:24.946Z,88.25
2023-04-26T08:26:51.303Z,88.15
2023-04-26T08:29:17.671Z,87.90
2023-04-26T08:31:44.045Z,87.76
2023-04-26T08:34:10.394Z,87.72
2023-04-26T08:36:36.733Z,87.93
2023-04-26T08:39:03.080Z,88.25
2023-04-26T08:41:29.462Z,88.21
2023-04-26T08:43:55.843Z,88.15
2023-04-26T08:46:22.248Z,88.22
2023-04-26T08:48:48.608Z,88.11
2023-04-26T08:51:14.974Z,88.20
2023-04-26T08:56:30.092Z,87.96
2023-04-26T08:58:56.431Z,88.37
2023-04-26T09:01:22.816Z,88.04
2023-04-26T09:03:49.298Z,87.63
2023-04-26T09:06:15.814Z,87.22
2023-04-26T09:08:44.608Z,87.88
2023-04-26T09:11:10.992Z,87.83
2023-04-26T09:13:37.344Z,87.84
2023-04-26T09:16:04.999Z,87.97
2023-04-26T09:18:31.645Z,88.11
2023-04-26T09:20:58.196Z,87.98
2023-04-26T09:23:24.583Z,87.72
2023-04-26T09:25:50.956Z,87.77
2023-04-26T09:28:17.324Z,87.77
2023-04-26T09:30:43.717Z,87.79
2023-04-26T09:33:10.161Z,87.90
2023-04-26T09:35:36.582Z,87.81
2023-04-26T09:38:08.625Z,87.77
2023-04-26T09:40:37.183Z,87.71
2023-04-26T09:43:03.546Z,87.58
2023-04-26T09:45:30.125Z,87.76
2023-04-26T09:47:56.497Z,87.75
2023-04-26T09:50:22.899Z,87.69
2023-04-26T09:52:49.253Z,87.58
2023-04-26T09:55:25.354Z,87.60
2023-04-26T09:58:00.257Z,87.48
2023-04-26T10:00:26.671Z,87.64
2023-04-26T10:02:53.115Z,87.87
2023-04-26T10:05:19.505Z,87.74
2023-04-26T10:07:45.860Z,87.82
2023-04-26T10:10:12.203Z,87.54
2023-04-26T10:12:38.535Z,86.94
2023-04-26T10:15:04.891Z,87.04
2023-04-26T10:17:31.561Z,87.29
2023-04-26T10:19:57.942Z,87.36
2023-04-26T10:22:24.367Z,87.24
2023-04-26T10:24:50.840Z,86.09
2023-04-26T10:27:17.217Z,87.33
2023-04-26T10:29:43.570Z,86.58
2023-04-26T10:32:12.253Z,87.17
2023-04-26T10:34:39.035Z,87.10
2023-04-26T10:37:05.399Z,87.14
2023-04-26T10:39:31.746Z,85.86
2023-04-26T10:41:58.090Z,86.54
2023-04-26T10:44:24.457Z,85.33
2023-04-26T10:46:50.824Z,84.36
2023-04-26T10:49:17.211Z,87.02
2023-04-26T10:51:43.550Z,87.29
2023-04-26T10:54:09.901Z,86.97
2023-04-26T10:56:36.265Z,86.78
2023-04-26T10:59:02.829Z,86.52
2023-04-26T11:01:30.084Z,84.73
2023-04-26T11:03:56.989Z,84.70
2023-04-26T11:06:23.809Z,84.04
2023-04-26T11:08:50.282Z,85.68
2023-04-26T11:11:16.779Z,86.81
2023-04-26T11:13:43.145Z,85.60
2023-04-26T11:16:09.532Z,83.20
2023-04-26T11:18:35.915Z,86.44
2023-04-26T11:21:02.234Z,83.92
2023-04-26T11:23:28.610Z,85.74
2023-04-26T11:25:54.985Z,83.12
2023-04-26T11:28:21.623Z,82.32
2023-04-26T11:30:48.013Z,82.34
2023-04-26T11:33:14.354Z,83.37
2023-04-26T11:35:40.724Z,84.01
2023-04-26T11:38:07.100Z,82.77
2023-04-26T11:40:33.477Z,83.39
2023-04-26T11:42:59.845Z,83.87
2023-04-26T11:45:26.227Z,83.16
2023-04-26T11:47:52.616Z,83.38
2023-04-26T11:50:19.003Z,84.53
2023-04-26T11:52:45.378Z,85.31
2023-04-26T11:55:11.743Z,84.19
2023-04-26T11:57:38.111Z,84.40
2023-04-26T12:00:04.451Z,83.88
2023-04-26T12:02:30.931Z,83.32
2023-04-26T12:04:57.676Z,83.77
2023-04-26T12:07:24.187Z,83.48
2023-04-26T12:09:50.552Z,83.63
2023-04-26T12:12:16.908Z,83.62
2023-04-26T12:14:43.271Z,83.77
2023-04-26T12:17:09.670Z,83.69
2023-04-26T12:19:36.301Z,83.23
2023-04-26T12:22:02.858Z,83.84
2023-04-26T12:24:29.230Z,84.06
2023-04-26T12:26:55.589Z,84.05
2023-04-26T12:29:21.926Z,83.69
2023-04-26T12:31:48.607Z,83.68
2023-04-26T12:34:15.001Z,83.55
2023-04-26T12:36:41.372Z,83.54
2023-04-26T12:39:07.775Z,83.44
2023-04-26T12:41:34.155Z,83.27
2023-04-26T12:44:00.525Z,83.57
2023-04-26T12:46:26.859Z,83.60
2023-04-26T12:48:53.466Z,83.36
2023-04-26T12:51:19.812Z,83.64
2023-04-26T12:53:46.157Z,83.82
2023-04-26T12:56:12.507Z,84.21
2023-04-26T12:58:38.863Z,84.42
2023-04-26T13:01:05.269Z,85.60
2023-04-26T13:03:31.892Z,84.85
2023-04-26T13:05:58.354Z,85.34
2023-04-26T13:08:24.735Z,84.95
2023-04-26T13:10:51.320Z,84.77
2023-04-26T13:13:18.281Z,84.29
2023-04-26T13:15:44.725Z,84.20
2023-04-26T13:18:11.174Z,83.66
2023-04-26T13:20:37.605Z,83.70
2023-04-26T13:23:03.957Z,83.56
2023-04-26T13:25:30.300Z,83.77
2023-04-26T13:27:56.642Z,83.72
2023-04-26T13:30:23.016Z,83.83
2023-04-26T13:32:49.623Z,83.38
2023-04-26T13:35:16.008Z,83.97
2023-04-26T13:37:42.560Z,83.92
2023-04-26T13:40:08.994Z,83.57
2023-04-26T13:42:35.396Z,83.65
2023-04-26T13:45:01.755Z,83.47
2023-04-26T13:47:28.130Z,84.09
2023-04-26T13:49:54.541Z,83.99
2023-04-26T13:52:20.881Z,83.85
2023-04-26T13:54:47.222Z,83.66
2023-04-26T13:57:13.582Z,83.52
2023-04-26T13:59:39.981Z,83.83
2023-04-26T14:02:06.410Z,83.85
2023-04-26T14:04:33.040Z,84.03
2023-04-26T14:06:59.516Z,84.60
2023-04-26T14:09:25.836Z,84.61
2023-04-26T14:12:06.577Z,84.62
2023-04-26T14:14:35.036Z,84.24
2023-04-26T14:17:01.442Z,83.99
2023-04-26T14:19:27.801Z,84.11
2023-04-26T14:21:54.154Z,84.01
2023-04-26T14:24:20.530Z,84.25
2023-04-26T14:26:47.156Z,84.28
2023-04-26T14:29:13.523Z,84.16
2023-04-26T14:31:39.904Z,84.03
2023-04-26T14:34:06.275Z,83.91
2023-04-26T14:36:32.654Z,84.03
2023-04-26T14:38:59.231Z,84.37
2023-04-26T14:41:25.580Z,84.30
2023-04-26T14:43:51.984Z,84.18
2023-04-26T14:46:18.429Z,84.47
2023-04-26T14:48:44.797Z,84.42
2023-04-26T14:51:14.167Z,84.35
2023-04-26T14:53:40.544Z,84.08
2023-04-26T14:56:06.922Z,84.02
2023-04-26T14:58:33.495Z,83.89
2023-04-26T15:00:59.893Z,83.90
2023-04-26T15:03:26.516Z,83.87
2023-04-26T15:05:53.017Z,83.65
2023-04-26T15:08:22.008Z,83.75
2023-04-26T15:10:48.511Z,83.66
2023-04-26T15:13:15.007Z,83.61
2023-04-26T15:15:41.536Z,83.76
2023-04-26T15:18:07.929Z,83.80
2023-04-26T15:20:34.288Z,83.77
2023-04-26T15:23:00.689Z,84.02
2023-04-26T15:25:27.065Z,84.09
2023-04-26T15:27:53.661Z,84.13
2023-04-26T15:30:20.034Z,84.17
2023-04-26T15:32:46.449Z,84.19
2023-04-26T15:35:12.844Z,84.15
2023-04-26T15:37:39.190Z,84.14
2023-04-26T15:40:05.524Z,84.16
2023-04-26T15:42:31.920Z,84.01
2023-04-26T15:44:58.782Z,84.04
2023-04-26T15:47:25.235Z,84.06
2023-04-26T15:49:51.582Z,84.12
2023-04-26T15:52:17.943Z,84.15
2023-04-26T15:54:44.324Z,84.29
2023-04-26T15:57:10.699Z,84.17
2023-04-26T15:59:37.053Z,84.13
2023-04-26T16:02:03.758Z,84.08
2023-04-26T16:04:30.423Z,84.03
2023-04-26T16:06:56.921Z,84.02
2023-04-26T16:09:25.095Z,84.07
2023-04-26T16:11:52.263Z,84.15
2023-04-26T16:14:18.638Z,84.18
2023-04-26T16:16:45.038Z,84.23
2023-04-26T16:19:11.386Z,84.16
2023-04-26T16:21:37.704Z,84.11
2023-04-26T16:24:04.079Z,84.10
2023-04-26T16:26:30.425Z,84.17
2023-04-26T16:28:57.014Z,84.26
2023-04-26T16:31:23.423Z,84.37
2023-04-26T16:33:49.817Z,84.46
2023-04-26T16:36:16.191Z,84.44
2023-04-26T16:38:42.574Z,84.29
2023-04-26T16:41:09.130Z,84.23
2023-04-26T16:43:35.479Z,84.25
2023-04-26T16:46:01.912Z,84.29
2023-04-26T16:48:28.376Z,84.30
2023-04-26T16:50:54.750Z,84.38
2023-04-26T16:53:21.349Z,84.44
2023-04-26T16:55:47.717Z,84.54
2023-04-26T16:58:14.061Z,84.53
2023-04-26T17:00:40.405Z,84.54
2023-04-26T17:03:06.880Z,84.50
2023-04-26T17:05:33.348Z,84.50
2023-04-26T17:07:59.708Z,84.35
2023-04-26T17:10:26.276Z,84.41
2023-04-26T17:12:52.667Z,84.49
2023-04-26T17:15:19.046Z,84.32
2023-04-26T17:17:45.481Z,84.16
2023-04-26T17:20:11.843Z,84.12
2023-04-26T17:22:38.181Z,84.19
2023-04-26T17:25:04.525Z,84.24
2023-04-26T17:27:31.095Z,84.28
2023-04-26T17:29:57.441Z,84.33
2023-04-26T17:32:23.858Z,84.40
2023-04-26T17:34:50.247Z,84.34
2023-04-26T17:37:16.592Z,84.50
2023-04-26T17:39:42.925Z,84.50
2023-04-26T17:42:09.287Z,84.52
2023-04-26T17:44:35.662Z,84.62
2023-04-26T17:47:02.021Z,84.53
2023-04-26T17:49:28.602Z,84.62
2023-04-26T17:51:55.016Z,84.54
2023-04-26T17:54:21.385Z,84.70
2023-04-26T17:56:47.753Z,84.70
2023-04-26T17:59:14.117Z,84.68
2023-04-26T18:01:40.547Z,84.70
2023-04-26T18:04:07.254Z,84.53
2023-04-26T18:06:33.975Z,84.59
2023-04-26T18:09:00.332Z,84.68
2023-04-26T18:11:26.695Z,84.53
2023-04-26T18:13:53.062Z,84.55
2023-04-26T18:16:19.492Z,84.60
2023-04-26T18:18:45.909Z,84.50
2023-04-26T18:21:12.271Z,84.42
2023-04-26T18:23:38.871Z,84.51
2023-04-26T18:26:05.212Z,84.37
2023-04-26T18:28:31.550Z,84.36
2023-04-26T18:30:57.904Z,84.28
2023-04-26T18:33:24.278Z,84.35
2023-04-26T18:35:50.672Z,84.44
2023-04-26T18:38:17.044Z,84.41
2023-04-26T18:40:43.618Z,84.41
2023-04-26T18:43:09.984Z,84.40
2023-04-26T18:45:36.347Z,84.38
2023-04-26T18:48:02.757Z,84.23
2023-04-26T18:50:29.134Z,84.24
2023-04-26T18:52:55.498Z,84.21
2023-04-26T18:55:21.880Z,84.17
2023-04-26T18:57:48.251Z,84.29
2023-04-26T19:00:14.594Z,84.26
2023-04-26T19:02:41.103Z,84.34
2023-04-26T19:05:07.958Z,84.25
2023-04-26T19:07:34.383Z,84.29
2023-04-26T19:10:00.841Z,84.19
2023-04-26T19:12:27.354Z,84.09
2023-04-26T19:14:53.698Z,84.46
2023-04-26T19:17:20.125Z,84.15
2023-04-26T19:19:46.593Z,84.43
2023-04-26T19:22:12.944Z,84.36
2023-04-26T19:24:39.309Z,84.17
2023-04-26T19:27:05.893Z,84.25
2023-04-26T19:29:32.245Z,84.29
2023-04-26T19:31:58.650Z,84.43
2023-04-26T19:34:25.128Z,84.28
2023-04-26T19:36:51.483Z,84.37
2023-04-26T19:39:17.851Z,84.21
2023-04-26T19:41:44.192Z,84.17
2023-04-26T19:44:10.758Z,84.21
2023-04-26T19:46:37.244Z,84.23
2023-04-26T19:49:03.696Z,84.47
2023-04-26T19:51:30.053Z,84.36
2023-04-26T19:53:56.395Z,84.19
2023-04-26T19:56:22.751Z,84.59
2023-04-26T19:58:49.115Z,84.25
2023-04-26T20:01:15.728Z,84.70
2023-04-26T20:03:42.251Z,84.66
2023-04-26T20:06:08.630Z,84.96
2023-04-26T20:08:34.985Z,84.84
2023-04-26T20:11:01.335Z,84.84
2023-04-26T20:13:27.690Z,84.75
2023-04-26T20:15:54.035Z,84.44
2023-04-26T20:18:20.617Z,84.48
2023-04-26T20:20:46.953Z,84.27
2023-04-26T20:23:13.337Z,85.35
2023-04-26T20:25:39.717Z,84.69
2023-04-26T20:28:06.076Z,85.19
2023-04-26T20:30:32.437Z,85.07
2023-04-26T20:32:58.831Z,84.77
2023-04-26T20:35:25.478Z,84.69
2023-04-26T20:37:51.817Z,85.27
2023-04-26T20:40:18.156Z,85.24
2023-04-26T20:42:44.532Z,85.23
2023-04-26T20:45:10.882Z,84.78
2023-04-26T20:47:37.351Z,85.00
2023-04-26T20:50:03.735Z,85.19
2023-04-26T20:52:30.286Z,85.49
2023-04-26T20:54:56.660Z,85.45
2023-04-26T20:57:23.036Z,85.47
2023-04-26T20:59:49.404Z,85.54
2023-04-26T21:02:15.885Z,85.07
2023-04-26T21:04:42.562Z,85.34
2023-04-26T21:07:09.172Z,85.60
2023-04-26T21:09:35.763Z,85.49
2023-04-26T21:12:02.099Z,85.47
2023-04-26T21:14:28.445Z,85.56
2023-04-26T21:16:54.766Z,85.48
2023-04-26T21:19:21.132Z,85.61
2023-04-26T21:21:47.698Z,85.58
2023-04-26T21:24:14.053Z,85.56
2023-04-26T21:26:40.395Z,85.52
2023-04-26T21:29:06.945Z,85.54
2023-04-26T21:31:33.464Z,85.49
2023-04-26T21:33:59.841Z,85.50
2023-04-26T21:36:26.195Z,85.30
2023-04-26T21:38:52.585Z,85.67
2023-04-26T21:41:18.958Z,85.45
2023-04-26T21:43:45.291Z,85.55
2023-04-26T21:46:11.727Z,85.43
2023-04-26T21:48:38.309Z,85.45
2023-04-26T21:51:04.650Z,85.69
2023-04-26T21:53:30.978Z,85.71
2023-04-26T21:55:57.379Z,85.52
2023-04-26T21:58:23.746Z,85.34
2023-04-26T22:00:50.201Z,85.63
2023-04-26T22:03:16.926Z,85.54
2023-04-26T22:05:43.676Z,85.54
2023-04-26T22:08:10.010Z,85.57
2023-04-26T22:10:36.395Z,85.35
2023-04-26T22:13:02.760Z,85.70
2023-04-26T22:15:29.136Z,85.39
2023-04-26T22:17:55.617Z,85.41
2023-04-26T22:20:22.042Z,85.50
2023-04-26T22:22:48.485Z,85.60
2023-04-26T22:25:14.853Z,85.43
2023-04-26T22:27:41.203Z,85.42
2023-04-26T22:30:23.051Z,85.32
2023-04-26T22:32:51.089Z,85.43
2023-04-26T22:35:17.473Z,85.37
2023-04-26T22:37:43.796Z,85.45
2023-04-26T22:40:10.166Z,85.51
2023-04-26T22:42:36.525Z,85.64
2023-04-26T22:45:02.905Z,85.53
2023-04-26T22:47:29.288Z,85.44
2023-04-26T22:49:55.904Z,85.55
2023-04-26T22:52:31.074Z,85.46
2023-04-26T22:54:58.645Z,85.50
2023-04-26T22:57:25.028Z,85.41
2023-04-26T22:59:51.390Z,85.46
2023-04-26T23:02:17.802Z,85.57
2023-04-26T23:04:44.204Z,85.59
2023-04-26T23:07:10.579Z,85.49
2023-04-26T23:09:36.978Z,85.57
2023-04-26T23:12:03.397Z,85.65
2023-04-26T23:14:29.780Z,85.77
2023-04-26T23:16:56.168Z,85.51
2023-04-26T23:19:22.588Z,85.58
2023-04-26T23:21:49.164Z,85.61
2023-04-26T23:24:15.532Z,85.74
2023-04-26T23:26:41.920Z,85.59
2023-04-26T23:29:08.307Z,85.72
2023-04-26T23:31:34.681Z,85.56
2023-04-26T23:34:01.085Z,85.60
2023-04-26T23:36:27.446Z,85.73
2023-04-26T23:38:54.032Z,85.58
2023-04-26T23:41:20.403Z,85.63
2023-04-26T23:43:46.769Z,85.77
2023-04-26T23:46:13.135Z,85.42
2023-04-26T23:48:39.518Z,85.63
2023-04-26T23:51:05.865Z,85.72
2023-04-26T23:53:32.205Z,85.50
2023-04-26T23:55:58.539Z,85.43
2023-04-26T23:58:24.895Z,85.67
